createdAt,value
2023-04-11T00:01:40.922Z,8.70
2023-04-11T00:04:09.103Z,8.70
2023-04-11T00:06:35.866Z,8.70
2023-04-11T00:09:02.671Z,8.70
2023-04-11T00:11:29.389Z,8.70
2023-04-11T00:13:56.109Z,8.70
2023-04-11T00:16:22.956Z,8.70
2023-04-11T00:18:49.725Z,8.70
2023-04-11T00:21:17.849Z,8.70
2023-04-11T00:23:44.621Z,8.60
2023-04-11T00:26:11.433Z,8.60
2023-04-11T00:28:38.168Z,8.70
2023-04-11T00:31:05.290Z,8.60
2023-04-11T00:33:32.039Z,8.70
2023-04-11T00:35:58.863Z,8.70
2023-04-11T00:38:27.039Z,8.70
2023-04-11T00:40:53.751Z,8.70
2023-04-11T00:43:20.537Z,8.70
2023-04-11T00:45:47.910Z,8.70
2023-04-11T00:48:14.950Z,8.70
2023-04-11T00:50:42.930Z,8.70
2023-04-11T00:53:11.764Z,8.70
2023-04-11T00:55:40.289Z,8.70
2023-04-11T00:58:07.204Z,8.70
2023-04-11T01:00:33.962Z,8.70
2023-04-11T01:03:00.856Z,8.60
2023-04-11T01:05:29.100Z,8.70
2023-04-11T01:07:56.758Z,8.70
2023-04-11T01:10:24.864Z,8.70
2023-04-11T01:12:53.412Z,8.70
2023-04-11T01:15:21.772Z,8.70
2023-04-11T01:17:48.629Z,8.70
2023-04-11T01:20:15.361Z,8.70
2023-04-11T01:22:42.834Z,8.70
2023-04-11T01:25:12.249Z,8.70
2023-04-11T01:27:39.035Z,8.70
2023-04-11T01:30:07.244Z,8.80
2023-04-11T01:32:33.969Z,8.80
2023-04-11T01:35:04.045Z,8.80
2023-04-11T01:37:31.023Z,8.80
2023-04-11T01:39:57.722Z,8.80
2023-04-11T01:42:27.010Z,8.80
2023-04-11T01:44:55.092Z,8.80
2023-04-11T01:47:21.901Z,8.80
2023-04-11T01:49:49.251Z,8.80
2023-04-11T01:52:15.919Z,8.80
2023-04-11T01:54:42.684Z,8.80
2023-04-11T01:57:09.379Z,8.80
2023-04-11T01:59:37.430Z,8.80
2023-04-11T02:02:04.322Z,8.80
2023-04-11T02:04:31.288Z,8.80
2023-04-11T02:06:58.028Z,8.80
2023-04-11T02:09:24.743Z,8.90
2023-04-11T02:11:51.416Z,8.90
2023-04-11T02:14:20.236Z,8.90
2023-04-11T02:16:53.012Z,8.90
2023-04-11T02:19:19.891Z,8.90
2023-04-11T02:21:46.740Z,8.90
2023-04-11T02:24:13.607Z,8.90
2023-04-11T02:26:41.007Z,8.90
2023-04-11T02:29:07.917Z,8.90
2023-04-11T02:31:34.896Z,8.90
2023-04-11T02:34:03.112Z,8.90
2023-04-11T02:36:29.874Z,8.90
2023-04-11T02:38:56.914Z,8.90
2023-04-11T02:41:23.856Z,8.90
2023-04-11T02:43:50.573Z,8.90
2023-04-11T02:46:17.350Z,8.90
2023-04-11T02:48:44.090Z,8.90
2023-04-11T02:51:12.139Z,8.90
2023-04-11T02:53:38.842Z,8.90
2023-04-11T02:56:06.442Z,8.90
2023-04-11T02:58:33.149Z,8.90
2023-04-11T03:00:59.883Z,8.90
2023-04-11T03:03:26.636Z,8.90
2023-04-11T03:05:53.593Z,8.90
2023-04-11T03:08:21.647Z,8.90
2023-04-11T03:10:48.346Z,8.90
2023-04-11T03:13:15.149Z,8.90
2023-04-11T03:15:41.998Z,8.90
2023-04-11T03:18:08.717Z,8.90
2023-04-11T03:20:35.414Z,8.90
2023-04-11T03:23:02.213Z,9.00
2023-04-11T03:25:30.273Z,8.90
2023-04-11T03:27:57.019Z,8.90
2023-04-11T03:30:23.743Z,8.90
2023-04-11T03:32:50.506Z,8.90
2023-04-11T03:35:17.370Z,8.90
2023-04-11T03:37:44.086Z,9.00
2023-04-11T03:40:11.255Z,8.90
2023-04-11T03:42:39.377Z,9.00
2023-04-11T03:45:07.709Z,8.90
2023-04-11T03:47:34.676Z,8.90
2023-04-11T03:50:01.418Z,9.00
2023-04-11T03:52:28.153Z,8.90
2023-04-11T03:54:54.899Z,9.00
2023-04-11T03:57:21.606Z,8.90
2023-04-11T03:59:49.650Z,9.00
2023-04-11T04:02:16.424Z,8.90
2023-04-11T04:04:47.310Z,9.00
2023-04-11T04:07:14.461Z,9.00
2023-04-11T04:09:41.239Z,9.00
2023-04-11T04:12:08.135Z,9.00
2023-04-11T04:14:34.885Z,8.90
2023-04-11T04:17:02.957Z,8.90
2023-04-11T04:19:29.760Z,9.00
2023-04-11T04:21:56.602Z,8.90
2023-04-11T04:24:23.891Z,9.00
2023-04-11T04:26:50.591Z,9.00
2023-04-11T04:29:17.339Z,9.00
2023-04-11T04:31:44.682Z,9.00
2023-04-11T04:34:12.968Z,9.00
2023-04-11T04:36:39.893Z,9.00
2023-04-11T04:39:06.608Z,9.00
2023-04-11T04:41:33.364Z,9.00
2023-04-11T04:44:00.103Z,9.00
2023-04-11T04:46:26.830Z,9.00
2023-04-11T04:48:53.519Z,9.00
2023-04-11T04:51:21.575Z,9.10
2023-04-11T04:53:48.277Z,9.10
2023-04-11T04:56:14.991Z,9.10
2023-04-11T04:58:41.736Z,9.10
2023-04-11T05:01:08.476Z,9.10
2023-04-11T05:03:35.315Z,9.10
2023-04-11T05:06:02.108Z,9.10
2023-04-11T05:08:30.210Z,9.10
2023-04-11T05:10:56.915Z,9.10
2023-04-11T05:13:23.625Z,9.10
2023-04-11T05:15:50.384Z,9.10
2023-04-11T05:18:17.131Z,9.10
2023-04-11T05:20:43.852Z,9.20
2023-04-11T05:23:10.558Z,9.20
2023-04-11T05:25:38.644Z,9.20
2023-04-11T05:28:05.468Z,9.20
2023-04-11T05:30:32.200Z,9.20
2023-04-11T05:32:59.016Z,9.20
2023-04-11T05:35:25.796Z,9.20
2023-04-11T05:37:52.559Z,9.20
2023-04-11T05:40:19.580Z,9.20
2023-04-11T05:42:47.640Z,9.20
2023-04-11T05:45:14.535Z,9.20
2023-04-11T05:47:41.302Z,9.20
2023-04-11T05:50:08.689Z,9.20
2023-04-11T05:52:35.395Z,9.20
2023-04-11T05:55:02.126Z,9.20
2023-04-11T05:57:28.912Z,9.20
2023-04-11T05:59:56.973Z,9.20
2023-04-11T06:02:23.888Z,9.20
2023-04-11T06:04:50.630Z,9.20
2023-04-11T06:07:17.370Z,9.20
2023-04-11T06:09:44.153Z,9.20
2023-04-11T06:12:10.996Z,9.20
2023-04-11T06:14:40.228Z,9.20
2023-04-11T06:17:08.671Z,9.20
2023-04-11T06:19:35.375Z,9.20
2023-04-11T06:22:02.052Z,9.20
2023-04-11T06:24:36.066Z,9.20
2023-04-11T06:27:02.790Z,9.20
2023-04-11T06:29:29.653Z,9.20
2023-04-11T06:31:56.558Z,9.20
2023-04-11T06:34:24.803Z,9.20
2023-04-11T06:36:51.486Z,9.20
2023-04-11T06:39:18.221Z,9.20
2023-04-11T06:41:46.134Z,9.20
2023-04-11T06:44:12.888Z,9.20
2023-04-11T06:46:39.779Z,9.20
2023-04-11T06:49:06.720Z,9.20
2023-04-11T06:51:34.885Z,9.20
2023-04-11T06:54:02.456Z,9.20
2023-04-11T06:56:29.542Z,9.20
2023-04-11T06:58:56.375Z,9.20
2023-04-11T07:01:23.132Z,9.20
2023-04-11T07:03:50.264Z,9.20
2023-04-11T07:06:17.101Z,9.20
2023-04-11T07:08:45.221Z,9.20
2023-04-11T07:11:12.080Z,9.20
2023-04-11T07:13:38.842Z,9.20
2023-04-11T07:16:06.298Z,9.20
2023-04-11T07:18:33.036Z,9.30
2023-04-11T07:20:59.763Z,9.20
2023-04-11T07:23:26.466Z,9.20
2023-04-11T07:25:54.545Z,9.20
2023-04-11T07:28:21.239Z,9.30
2023-04-11T07:30:47.994Z,9.30
2023-04-11T07:33:14.696Z,9.20
2023-04-11T07:35:41.482Z,9.30
2023-04-11T07:38:08.190Z,9.30
2023-04-11T07:40:34.884Z,9.30
2023-04-11T07:43:02.933Z,9.30
2023-04-11T07:45:29.677Z,9.30
2023-04-11T07:47:56.498Z,9.30
2023-04-11T07:50:23.307Z,9.30
2023-04-11T07:52:50.039Z,9.30
2023-04-11T07:55:17.138Z,9.30
2023-04-11T07:57:43.874Z,9.30
2023-04-11T08:00:19.391Z,9.30
2023-04-11T08:02:46.188Z,9.30
2023-04-11T08:05:13.060Z,9.30
2023-04-11T08:07:39.791Z,9.30
2023-04-11T08:10:07.837Z,9.30
2023-04-11T08:12:34.570Z,9.30
2023-04-11T08:15:01.311Z,9.30
2023-04-11T08:17:29.479Z,9.30
2023-04-11T08:19:56.328Z,9.40
2023-04-11T08:22:23.129Z,9.40
2023-04-11T08:24:49.876Z,9.40
2023-04-11T08:27:16.575Z,9.40
2023-04-11T08:29:43.291Z,9.50
2023-04-11T08:32:09.976Z,9.40
2023-04-11T08:34:38.025Z,9.40
2023-04-11T08:37:04.752Z,9.40
2023-04-11T08:39:31.504Z,9.40
2023-04-11T08:41:58.358Z,9.40
2023-04-11T08:44:25.211Z,9.40
2023-04-11T08:46:51.985Z,9.40
2023-04-11T08:49:18.759Z,9.40
2023-04-11T08:51:47.335Z,9.50
2023-04-11T08:54:15.837Z,9.50
2023-04-11T08:56:42.599Z,9.50
2023-04-11T08:59:09.310Z,9.50
2023-04-11T09:01:36.101Z,9.50
2023-04-11T09:04:04.861Z,9.50
2023-04-11T09:06:32.861Z,9.50
2023-04-11T09:09:03.566Z,9.50
2023-04-11T09:11:30.610Z,9.50
2023-04-11T09:14:07.533Z,9.50
2023-04-11T09:16:34.812Z,9.50
2023-04-11T09:19:01.730Z,9.50
2023-04-11T09:21:28.565Z,9.50
2023-04-11T09:23:55.448Z,9.50
2023-04-11T09:26:29.074Z,9.50
2023-04-11T09:28:55.994Z,9.50
2023-04-11T09:31:39.723Z,9.50
2023-04-11T09:34:06.488Z,9.50
2023-04-11T09:36:33.396Z,9.50
2023-04-11T09:39:00.243Z,9.50
2023-04-11T09:41:32.499Z,9.60
2023-04-11T09:44:00.065Z,9.60
2023-04-11T09:46:26.935Z,9.50
2023-04-11T09:48:55.045Z,9.50
2023-04-11T09:51:35.163Z,9.60
2023-04-11T09:54:02.522Z,9.60
2023-04-11T09:56:30.891Z,9.60
2023-04-11T09:58:59.616Z,9.60
2023-04-11T10:01:26.360Z,9.60
2023-04-11T10:03:53.187Z,9.60
2023-04-11T10:06:30.114Z,9.60
2023-04-11T10:09:06.013Z,9.60
2023-04-11T10:11:34.275Z,9.60
2023-04-11T10:14:01.114Z,9.60
2023-04-11T10:16:27.898Z,9.60
2023-04-11T10:19:22.986Z,9.60
2023-04-11T10:21:49.683Z,9.60
2023-04-11T10:24:18.180Z,9.60
2023-04-11T10:26:54.207Z,9.70
2023-04-11T10:29:51.694Z,9.60
2023-04-11T10:32:21.199Z,9.70
2023-04-11T10:35:30.765Z,9.70
2023-04-11T10:37:57.610Z,9.70
2023-04-11T10:40:24.620Z,9.70
2023-04-11T10:42:52.791Z,9.70
2023-04-11T10:45:21.824Z,9.70
2023-04-11T10:48:01.868Z,9.80
2023-04-11T10:50:40.399Z,9.80
2023-04-11T10:53:11.243Z,9.80
2023-04-11T10:55:48.321Z,9.80
2023-04-11T10:58:17.498Z,9.80
2023-04-11T11:01:21.268Z,9.80
2023-04-11T11:03:58.691Z,9.80
2023-04-11T11:06:25.920Z,9.80
2023-04-11T11:08:52.970Z,9.80
2023-04-11T11:11:19.671Z,9.80
2023-04-11T11:13:49.387Z,9.80
2023-04-11T11:16:17.724Z,9.80
2023-04-11T11:18:46.000Z,9.80
2023-04-11T11:21:17.082Z,9.80
2023-04-11T11:23:54.973Z,9.80
2023-04-11T11:26:22.060Z,9.90
2023-04-11T11:28:50.228Z,9.90
2023-04-11T11:31:16.935Z,9.90
2023-04-11T11:33:43.665Z,9.90
2023-04-11T11:36:11.592Z,9.90
2023-04-11T11:38:38.502Z,9.90
2023-04-11T11:41:05.639Z,10.00
2023-04-11T11:43:36.400Z,10.00
2023-04-11T11:46:12.044Z,10.00
2023-04-11T11:48:38.907Z,10.00
2023-04-11T11:51:06.209Z,10.00
2023-04-11T11:53:33.255Z,10.00
2023-04-11T11:56:00.185Z,10.00
2023-04-11T11:58:26.947Z,10.10
2023-04-11T12:00:54.146Z,10.10
2023-04-11T12:03:23.955Z,10.10
2023-04-11T12:05:51.606Z,10.10
2023-04-11T12:08:19.934Z,10.20
2023-04-11T12:10:47.650Z,10.20
2023-04-11T12:13:16.172Z,10.20
2023-04-11T12:15:45.046Z,10.30
2023-04-11T12:18:11.909Z,10.30
2023-04-11T12:20:40.190Z,10.20
2023-04-11T12:23:06.957Z,10.30
2023-04-11T12:25:33.691Z,10.30
2023-04-11T12:28:00.505Z,10.30
2023-04-11T12:30:28.256Z,10.30
2023-04-11T12:32:56.709Z,10.30
2023-04-11T12:35:23.462Z,10.40
2023-04-11T12:37:51.532Z,10.40
2023-04-11T12:40:18.546Z,10.40
2023-04-11T12:42:56.208Z,10.40
2023-04-11T12:45:24.026Z,10.40
2023-04-11T12:47:50.938Z,10.50
2023-04-11T12:50:18.251Z,10.50
2023-04-11T12:52:45.080Z,10.50
2023-04-11T12:55:13.620Z,10.50
2023-04-11T12:57:40.830Z,10.60
2023-04-11T13:00:08.654Z,10.60
2023-04-11T13:02:42.311Z,10.60
2023-04-11T13:05:10.855Z,10.60
2023-04-11T13:07:37.680Z,10.60
2023-04-11T13:10:07.352Z,10.60
2023-04-11T13:12:35.410Z,10.60
2023-04-11T13:15:02.135Z,10.60
2023-04-11T13:17:28.841Z,10.60
2023-04-11T13:19:55.594Z,10.70
2023-04-11T13:22:22.277Z,10.70
2023-04-11T13:24:48.976Z,10.70
2023-04-11T13:27:15.679Z,10.70
2023-04-11T13:29:43.715Z,10.70
2023-04-11T13:32:10.408Z,10.70
2023-04-11T13:34:37.102Z,10.70
2023-04-11T13:37:03.866Z,10.70
2023-04-11T13:39:30.604Z,10.70
2023-04-11T13:41:57.273Z,10.70
2023-04-11T13:44:23.990Z,10.80
2023-04-11T13:46:52.057Z,10.80
2023-04-11T13:49:18.945Z,10.80
2023-04-11T13:51:45.842Z,10.80
2023-04-11T13:54:12.557Z,10.80
2023-04-11T13:56:39.294Z,10.80
2023-04-11T13:59:06.032Z,10.80
2023-04-11T14:01:32.844Z,10.80
2023-04-11T14:04:01.305Z,10.90
2023-04-11T14:06:28.333Z,10.90
2023-04-11T14:08:55.056Z,10.90
2023-04-11T14:11:21.756Z,10.90
2023-04-11T14:13:48.969Z,10.90
2023-04-11T14:16:15.769Z,10.90
2023-04-11T14:18:42.488Z,10.80
2023-04-11T14:21:10.638Z,10.90
2023-04-11T14:23:37.488Z,10.90
2023-04-11T14:26:04.714Z,10.90
2023-04-11T14:28:31.445Z,10.90
2023-04-11T14:30:58.226Z,10.90
2023-04-11T14:33:24.979Z,10.90
2023-04-11T14:35:51.741Z,10.90
2023-04-11T14:38:19.808Z,10.90
2023-04-11T14:40:46.592Z,10.90
2023-04-11T14:43:13.437Z,11.00
2023-04-11T14:45:40.320Z,11.00
2023-04-11T14:48:07.145Z,11.00
2023-04-11T14:50:34.073Z,11.00
2023-04-11T14:53:00.863Z,11.10
2023-04-11T14:55:28.944Z,11.00
2023-04-11T14:57:56.345Z,11.10
2023-04-11T15:00:23.451Z,11.10
2023-04-11T15:02:53.375Z,11.10
2023-04-11T15:05:20.836Z,11.20
2023-04-11T15:07:49.501Z,11.20
2023-04-11T15:10:17.873Z,11.20
2023-04-11T15:12:46.179Z,11.20
2023-04-11T15:15:13.008Z,11.20
2023-04-11T15:17:41.738Z,11.20
2023-04-11T15:20:10.387Z,11.30
2023-04-11T15:22:41.766Z,11.30
2023-04-11T15:25:11.048Z,11.30
2023-04-11T15:27:37.942Z,11.30
2023-04-11T15:30:07.507Z,11.30
2023-04-11T15:32:34.531Z,11.30
2023-04-11T15:35:01.563Z,11.20
2023-04-11T15:37:28.369Z,11.30
2023-04-11T15:39:55.180Z,11.20
2023-04-11T15:42:21.880Z,11.20
2023-04-11T15:44:48.561Z,11.20
2023-04-11T15:47:16.900Z,11.30
2023-04-11T15:49:43.618Z,11.30
2023-04-11T15:52:10.308Z,11.30
2023-04-11T15:54:37.010Z,11.30
2023-04-11T15:57:03.870Z,11.30
2023-04-11T15:59:30.595Z,11.30
2023-04-11T16:01:57.366Z,11.30
2023-04-11T16:04:25.798Z,11.30
2023-04-11T16:06:52.697Z,11.30
2023-04-11T16:09:19.400Z,11.30
2023-04-11T16:11:46.118Z,11.30
2023-04-11T16:14:12.905Z,11.30
2023-04-11T16:16:39.685Z,11.30
2023-04-11T16:19:06.535Z,11.30
2023-04-11T16:21:34.604Z,11.30
2023-04-11T16:24:01.278Z,11.40
2023-04-11T16:26:27.995Z,11.30
2023-04-11T16:28:54.671Z,11.30
2023-04-11T16:31:21.519Z,11.30
2023-04-11T16:33:48.266Z,11.30
2023-04-11T16:36:15.539Z,11.30
2023-04-11T16:38:43.670Z,11.30
2023-04-11T16:41:10.345Z,11.30
2023-04-11T16:43:37.085Z,11.30
2023-04-11T16:46:04.163Z,11.30
2023-04-11T16:48:30.887Z,11.30
2023-04-11T16:50:58.181Z,11.20
2023-04-11T16:53:24.874Z,11.30
2023-04-11T16:55:52.906Z,11.20
2023-04-11T16:58:19.622Z,11.20
2023-04-11T17:00:46.330Z,11.20
2023-04-11T17:03:13.342Z,11.20
2023-04-11T17:05:40.196Z,11.20
2023-04-11T17:08:06.997Z,11.20
2023-04-11T17:10:33.696Z,11.20
2023-04-11T17:13:01.793Z,11.20
2023-04-11T17:15:28.874Z,11.10
2023-04-11T17:17:55.609Z,11.10
2023-04-11T17:20:22.601Z,11.10
2023-04-11T17:22:49.430Z,11.10
2023-04-11T17:25:16.282Z,11.10
2023-04-11T17:27:42.989Z,11.10
2023-04-11T17:30:11.656Z,11.10
2023-04-11T17:32:38.539Z,11.10
2023-04-11T17:35:06.096Z,11.10
2023-04-11T17:37:32.950Z,11.00
2023-04-11T17:39:59.662Z,11.00
2023-04-11T17:42:26.356Z,11.00
2023-04-11T17:44:53.854Z,11.00
2023-04-11T17:47:24.053Z,11.00
2023-04-11T17:49:50.868Z,11.00
2023-04-11T17:52:17.590Z,11.00
2023-04-11T17:54:44.411Z,10.90
2023-04-11T17:57:11.118Z,10.90
2023-04-11T17:59:37.833Z,10.90
2023-04-11T18:02:05.187Z,10.80
2023-04-11T18:04:33.371Z,10.80
2023-04-11T18:07:00.067Z,10.80
2023-04-11T18:09:26.811Z,10.70
2023-04-11T18:11:53.486Z,10.70
2023-04-11T18:14:20.175Z,10.70
2023-04-11T18:16:46.994Z,10.70
2023-04-11T18:19:13.670Z,10.70
2023-04-11T18:21:41.699Z,10.60
2023-04-11T18:24:09.178Z,10.70
2023-04-11T18:26:35.849Z,10.70
2023-04-11T18:29:02.608Z,10.70
2023-04-11T18:31:29.375Z,10.70
2023-04-11T18:33:56.655Z,10.70
2023-04-11T18:36:23.833Z,10.70
2023-04-11T18:38:52.328Z,10.70
2023-04-11T18:41:20.058Z,10.70
2023-04-11T18:43:46.972Z,10.70
2023-04-11T18:46:13.831Z,10.70
2023-04-11T18:48:40.618Z,10.60
2023-04-11T18:51:07.856Z,10.60
2023-04-11T18:53:34.597Z,10.60
2023-04-11T18:56:02.630Z,10.60
2023-04-11T18:58:31.062Z,10.60
2023-04-11T19:00:59.038Z,10.60
2023-04-11T19:03:25.880Z,10.50
2023-04-11T19:05:52.974Z,10.50
2023-04-11T19:08:19.769Z,10.50
2023-04-11T19:10:46.497Z,10.50
2023-04-11T19:13:14.520Z,10.50
2023-04-11T19:15:41.315Z,10.40
2023-04-11T19:18:08.135Z,10.40
2023-04-11T19:23:01.627Z,10.40
2023-04-11T19:25:28.535Z,10.30
2023-04-11T19:27:55.307Z,10.20
2023-04-11T19:30:23.418Z,10.20
2023-04-11T19:32:50.169Z,10.20
2023-04-11T19:35:16.898Z,10.20
2023-04-11T19:37:43.603Z,10.20
2023-04-11T19:40:11.109Z,10.10
2023-04-11T19:42:37.887Z,10.10
2023-04-11T19:45:05.415Z,10.10
2023-04-11T19:47:33.552Z,10.00
2023-04-11T19:50:00.481Z,10.00
2023-04-11T19:52:27.859Z,9.90
2023-04-11T19:54:55.849Z,10.00
2023-04-11T19:57:22.702Z,10.00
2023-04-11T19:59:49.423Z,10.00
2023-04-11T20:02:16.383Z,9.90
2023-04-11T20:04:44.571Z,9.90
2023-04-11T20:07:11.495Z,9.90
2023-04-11T20:09:38.220Z,9.90
2023-04-11T20:12:05.092Z,9.80
2023-04-11T20:14:31.846Z,9.80
2023-04-11T20:16:58.577Z,9.80
2023-04-11T20:19:26.027Z,9.80
2023-04-11T20:21:54.090Z,9.80
2023-04-11T20:24:20.826Z,9.80
2023-04-11T20:26:47.543Z,9.80
2023-04-11T20:29:14.263Z,9.80
2023-04-11T20:31:41.003Z,9.70
2023-04-11T20:34:07.712Z,9.70
2023-04-11T20:36:34.446Z,9.70
2023-04-11T20:39:02.524Z,9.70
2023-04-11T20:41:29.448Z,9.60
2023-04-11T20:43:56.478Z,9.60
2023-04-11T20:46:23.383Z,9.60
2023-04-11T20:48:50.921Z,9.60
2023-04-11T20:51:17.618Z,9.50
2023-04-11T20:53:44.334Z,9.50
2023-04-11T20:56:13.464Z,9.50
2023-04-11T20:58:40.303Z,9.50
2023-04-11T21:01:07.246Z,9.50
2023-04-11T21:03:34.172Z,9.40
2023-04-11T21:06:00.944Z,9.40
2023-04-11T21:08:27.647Z,9.40
2023-04-11T21:10:54.360Z,9.40
2023-04-11T21:13:22.384Z,9.40
2023-04-11T21:15:49.114Z,9.30
2023-04-11T21:18:15.924Z,9.10
2023-04-11T21:20:42.668Z,9.10
2023-04-11T21:23:09.387Z,9.10
2023-04-11T21:25:37.003Z,9.10
2023-04-11T21:28:03.830Z,9.00
2023-04-11T21:30:31.903Z,9.10
2023-04-11T21:32:58.636Z,9.10
2023-04-11T21:35:25.635Z,9.10
2023-04-11T21:37:52.305Z,9.10
2023-04-11T21:40:19.074Z,9.10
2023-04-11T21:42:45.819Z,9.10
2023-04-11T21:45:12.559Z,9.10
2023-04-11T21:47:40.659Z,9.10
2023-04-11T21:50:08.918Z,8.80
2023-04-11T21:52:35.690Z,8.70
2023-04-11T21:55:02.398Z,8.90
2023-04-11T21:57:32.040Z,8.90
2023-04-11T21:59:58.717Z,9.00
2023-04-11T22:02:25.737Z,8.90
2023-04-11T22:05:05.691Z,8.60
2023-04-11T22:07:34.568Z,8.40
2023-04-11T22:10:01.269Z,8.60
2023-04-11T22:12:27.987Z,8.80
2023-04-11T22:14:55.589Z,8.80
2023-04-11T22:17:22.642Z,8.80
2023-04-11T22:19:49.390Z,8.60
2023-04-11T22:22:17.581Z,8.60
2023-04-11T22:24:44.383Z,8.70
2023-04-11T22:27:11.116Z,8.70
2023-04-11T22:29:37.849Z,8.70
2023-04-11T22:32:05.036Z,8.70
2023-04-11T22:34:31.756Z,8.70
2023-04-11T22:36:58.426Z,8.70
2023-04-11T22:39:26.489Z,8.70
2023-04-11T22:41:53.283Z,8.70
2023-04-11T22:44:20.083Z,8.70
2023-04-11T22:46:58.242Z,8.70
2023-04-11T22:49:24.937Z,8.70
2023-04-11T22:51:51.664Z,8.70
2023-04-11T22:54:18.362Z,8.70
2023-04-11T22:56:46.441Z,8.60
2023-04-11T22:59:13.125Z,8.60
2023-04-11T23:01:39.991Z,8.60
2023-04-11T23:04:06.837Z,8.60
2023-04-11T23:06:33.556Z,8.50
2023-04-11T23:09:00.240Z,8.50
2023-04-11T23:11:26.947Z,8.50
2023-04-11T23:13:55.000Z,8.50
2023-04-11T23:16:21.780Z,8.60
2023-04-11T23:18:48.553Z,8.50
2023-04-11T23:21:15.268Z,8.50
2023-04-11T23:23:41.963Z,8.40
2023-04-11T23:26:08.641Z,8.30
2023-04-11T23:28:35.334Z,8.30
2023-04-11T23:31:03.678Z,8.30
2023-04-11T23:33:30.461Z,8.00
2023-04-11T23:35:57.176Z,8.00
2023-04-11T23:38:23.911Z,8.00
2023-04-11T23:40:50.625Z,8.00
2023-04-11T23:43:17.326Z,8.00
2023-04-11T23:45:44.141Z,8.20
2023-04-11T23:48:12.226Z,8.20
2023-04-11T23:50:38.952Z,8.10
2023-04-11T23:53:06.156Z,8.20
2023-04-11T23:55:32.916Z,8.30
2023-04-11T23:57:59.624Z,8.10
